sensor_id;sensor_type;location;lat;lon;timestamp;P1;durP1;ratioP1;P2;durP2;ratioP2
45970;SDS011;31681;48.982;8.394;2023-09-19T00:02:16;3.92;;;1.20;;
45970;SDS011;31681;48.982;8.394;2023-09-19T00:04:41;3.28;;;1.10;;
45970;SDS011;31681;48.982;8.394;2023-09-19T00:07:08;2.10;;;1.13;;
45970;SDS011;31681;48.982;8.394;2023-09-19T00:09:34;3.80;;;1.40;;
45970;SDS011;31681;48.982;8.394;2023-09-19T00:12:05;2.72;;;1.20;;
45970;SDS011;31681;48.982;8.394;2023-09-19T00:14:31;2.47;;;1.20;;
45970;SDS011;31681;48.982;8.394;2023-09-19T00:16:59;3.50;;;0.95;;
45970;SDS011;31681;48.982;8.394;2023-09-19T00:19:25;1.85;;;1.10;;
45970;SDS011;31681;48.982;8.394;2023-09-19T00:21:51;1.40;;;0.98;;
45970;SDS011;31681;48.982;8.394;2023-09-19T00:24:18;2.50;;;1.10;;
45970;SDS011;31681;48.982;8.394;2023-09-19T00:26:43;2.95;;;1.15;;
45970;SDS011;31681;48.982;8.394;2023-09-19T00:29:08;1.95;;;0.90;;
45970;SDS011;31681;48.982;8.394;2023-09-19T00:31:34;2.10;;;0.95;;
45970;SDS011;31681;48.982;8.394;2023-09-19T00:33:59;2.38;;;0.95;;
45970;SDS011;31681;48.982;8.394;2023-09-19T00:36:31;2.58;;;0.90;;
45970;SDS011;31681;48.982;8.394;2023-09-19T00:38:58;1.05;;;0.95;;
45970;SDS011;31681;48.982;8.394;2023-09-19T00:41:24;3.50;;;1.20;;
45970;SDS011;31681;48.982;8.394;2023-09-19T00:43:50;2.75;;;1.23;;
45970;SDS011;31681;48.982;8.394;2023-09-19T00:46:16;2.78;;;1.10;;
45970;SDS011;31681;48.982;8.394;2023-09-19T00:48:42;1.83;;;0.93;;
45970;SDS011;31681;48.982;8.394;2023-09-19T00:51:11;2.45;;;0.90;;
45970;SDS011;31681;48.982;8.394;2023-09-19T00:53:39;3.70;;;1.10;;
45970;SDS011;31681;48.982;8.394;2023-09-19T00:56:04;1.63;;;0.90;;
45970;SDS011;31681;48.982;8.394;2023-09-19T00:58:33;2.55;;;0.88;;
45970;SDS011;31681;48.982;8.394;2023-09-19T01:01:01;2.70;;;1.05;;
45970;SDS011;31681;48.982;8.394;2023-09-19T01:03:27;3.05;;;1.00;;
45970;SDS011;31681;48.982;8.394;2023-09-19T01:05:52;1.48;;;0.80;;
45970;SDS011;31681;48.982;8.394;2023-09-19T01:08:18;1.42;;;0.80;;
45970;SDS011;31681;48.982;8.394;2023-09-19T01:10:46;1.67;;;1.10;;
45970;SDS011;31681;48.982;8.394;2023-09-19T01:13:22;3.17;;;1.20;;
45970;SDS011;31681;48.982;8.394;2023-09-19T01:15:59;2.17;;;0.90;;
45970;SDS011;31681;48.982;8.394;2023-09-19T01:18:40;2.65;;;1.10;;
45970;SDS011;31681;48.982;8.394;2023-09-19T01:21:11;2.47;;;1.25;;
45970;SDS011;31681;48.982;8.394;2023-09-19T01:23:55;2.15;;;1.05;;
45970;SDS011;31681;48.982;8.394;2023-09-19T01:31:46;2.60;;;0.77;;
45970;SDS011;31681;48.982;8.394;2023-09-19T01:34:12;1.35;;;0.90;;
45970;SDS011;31681;48.982;8.394;2023-09-19T01:36:38;2.22;;;1.23;;
45970;SDS011;31681;48.982;8.394;2023-09-19T01:39:07;3.47;;;1.00;;
45970;SDS011;31681;48.982;8.394;2023-09-19T01:41:44;3.45;;;0.80;;
45970;SDS011;31681;48.982;8.394;2023-09-19T01:44:12;2.20;;;0.90;;
45970;SDS011;31681;48.982;8.394;2023-09-19T01:46:43;3.20;;;0.73;;
45970;SDS011;31681;48.982;8.394;2023-09-19T01:49:22;1.48;;;0.80;;
45970;SDS011;31681;48.982;8.394;2023-09-19T01:54:24;1.15;;;0.70;;
45970;SDS011;31681;48.982;8.394;2023-09-19T01:56:57;1.52;;;0.90;;
45970;SDS011;31681;48.982;8.394;2023-09-19T01:59:28;2.50;;;1.10;;
45970;SDS011;31681;48.982;8.394;2023-09-19T02:01:57;2.97;;;1.17;;
45970;SDS011;31681;48.982;8.394;2023-09-19T02:04:22;4.30;;;0.95;;
45970;SDS011;31681;48.982;8.394;2023-09-19T02:06:48;3.38;;;1.30;;
45970;SDS011;31681;48.982;8.394;2023-09-19T02:09:13;1.95;;;0.90;;
45970;SDS011;31681;48.982;8.394;2023-09-19T02:11:39;3.53;;;0.90;;
45970;SDS011;31681;48.982;8.394;2023-09-19T02:14:06;1.85;;;1.00;;
45970;SDS011;31681;48.982;8.394;2023-09-19T02:16:33;2.17;;;1.10;;
45970;SDS011;31681;48.982;8.394;2023-09-19T02:18:58;2.30;;;1.00;;
45970;SDS011;31681;48.982;8.394;2023-09-19T02:21:25;3.95;;;1.10;;
45970;SDS011;31681;48.982;8.394;2023-09-19T02:23:50;1.13;;;0.90;;
45970;SDS011;31681;48.982;8.394;2023-09-19T02:26:16;2.47;;;0.82;;
45970;SDS011;31681;48.982;8.394;2023-09-19T02:28:43;2.00;;;1.10;;
45970;SDS011;31681;48.982;8.394;2023-09-19T02:31:11;2.30;;;1.23;;
45970;SDS011;31681;48.982;8.394;2023-09-19T02:33:36;1.85;;;1.10;;
45970;SDS011;31681;48.982;8.394;2023-09-19T02:36:02;1.50;;;1.10;;
45970;SDS011;31681;48.982;8.394;2023-09-19T02:38:29;1.55;;;1.00;;
45970;SDS011;31681;48.982;8.394;2023-09-19T02:40:54;1.60;;;1.05;;
45970;SDS011;31681;48.982;8.394;2023-09-19T02:43:23;2.15;;;0.90;;
45970;SDS011;31681;48.982;8.394;2023-09-19T02:45:48;3.63;;;0.90;;
45970;SDS011;31681;48.982;8.394;2023-09-19T02:48:18;3.45;;;1.35;;
45970;SDS011;31681;48.982;8.394;2023-09-19T02:50:45;3.85;;;1.13;;
45970;SDS011;31681;48.982;8.394;2023-09-19T02:53:11;1.42;;;1.00;;
45970;SDS011;31681;48.982;8.394;2023-09-19T02:55:38;1.13;;;0.98;;
45970;SDS011;31681;48.982;8.394;2023-09-19T02:58:05;3.00;;;0.90;;
45970;SDS011;31681;48.982;8.394;2023-09-19T03:00:33;1.90;;;1.27;;
45970;SDS011;31681;48.982;8.394;2023-09-19T03:03:00;1.63;;;1.02;;
45970;SDS011;31681;48.982;8.394;2023-09-19T03:05:27;3.05;;;1.15;;
45970;SDS011;31681;48.982;8.394;2023-09-19T03:07:56;4.00;;;1.40;;
45970;SDS011;31681;48.982;8.394;2023-09-19T03:10:22;2.92;;;1.25;;
45970;SDS011;31681;48.982;8.394;2023-09-19T03:12:48;3.58;;;1.10;;
45970;SDS011;31681;48.982;8.394;2023-09-19T03:15:14;3.78;;;1.33;;
45970;SDS011;31681;48.982;8.394;2023-09-19T03:17:48;1.30;;;1.20;;
45970;SDS011;31681;48.982;8.394;2023-09-19T03:20:18;2.40;;;1.50;;
45970;SDS011;31681;48.982;8.394;2023-09-19T03:22:46;5.00;;;1.67;;
45970;SDS011;31681;48.982;8.394;2023-09-19T03:25:11;3.42;;;1.35;;
45970;SDS011;31681;48.982;8.394;2023-09-19T03:27:39;5.05;;;1.35;;
45970;SDS011;31681;48.982;8.394;2023-09-19T03:30:05;1.35;;;1.15;;
45970;SDS011;31681;48.982;8.394;2023-09-19T03:32:36;2.03;;;1.35;;
45970;SDS011;31681;48.982;8.394;2023-09-19T03:35:02;4.18;;;1.30;;
45970;SDS011;31681;48.982;8.394;2023-09-19T03:37:31;3.20;;;1.30;;
45970;SDS011;31681;48.982;8.394;2023-09-19T03:39:57;4.15;;;1.73;;
45970;SDS011;31681;48.982;8.394;2023-09-19T03:42:23;1.92;;;1.42;;
45970;SDS011;31681;48.982;8.394;2023-09-19T03:44:51;2.20;;;1.40;;
45970;SDS011;31681;48.982;8.394;2023-09-19T03:47:18;1.83;;;1.48;;
45970;SDS011;31681;48.982;8.394;2023-09-19T03:49:44;5.43;;;1.40;;
45970;SDS011;31681;48.982;8.394;2023-09-19T03:52:10;2.45;;;1.55;;
45970;SDS011;31681;48.982;8.394;2023-09-19T03:54:36;5.38;;;1.42;;
45970;SDS011;31681;48.982;8.394;2023-09-19T03:57:01;5.53;;;2.05;;
45970;SDS011;31681;48.982;8.394;2023-09-19T03:59:28;2.33;;;1.40;;
45970;SDS011;31681;48.982;8.394;2023-09-19T04:01:54;2.50;;;1.60;;
45970;SDS011;31681;48.982;8.394;2023-09-19T04:04:22;4.53;;;1.38;;
45970;SDS011;31681;48.982;8.394;2023-09-19T04:06:49;3.00;;;1.55;;
45970;SDS011;31681;48.982;8.394;2023-09-19T04:09:15;5.05;;;1.60;;
45970;SDS011;31681;48.982;8.394;2023-09-19T04:11:40;3.50;;;1.60;;
45970;SDS011;31681;48.982;8.394;2023-09-19T04:14:05;3.88;;;1.80;;
45970;SDS011;31681;48.982;8.394;2023-09-19T04:16:31;3.78;;;1.52;;
45970;SDS011;31681;48.982;8.394;2023-09-19T04:18:56;3.75;;;1.63;;
45970;SDS011;31681;48.982;8.394;2023-09-19T04:21:21;2.38;;;1.60;;
45970;SDS011;31681;48.982;8.394;2023-09-19T04:23:47;3.42;;;1.77;;
45970;SDS011;31681;48.982;8.394;2023-09-19T04:26:13;3.65;;;1.70;;
45970;SDS011;31681;48.982;8.394;2023-09-19T04:28:41;5.90;;;1.95;;
45970;SDS011;31681;48.982;8.394;2023-09-19T04:31:07;4.35;;;2.38;;
45970;SDS011;31681;48.982;8.394;2023-09-19T04:33:33;3.70;;;2.15;;
45970;SDS011;31681;48.982;8.394;2023-09-19T04:36:00;5.72;;;2.38;;
45970;SDS011;31681;48.982;8.394;2023-09-19T04:38:25;2.03;;;1.75;;
45970;SDS011;31681;48.982;8.394;2023-09-19T04:40:56;3.88;;;1.88;;
45970;SDS011;31681;48.982;8.394;2023-09-19T04:43:21;3.65;;;2.13;;
45970;SDS011;31681;48.982;8.394;2023-09-19T04:45:46;6.85;;;2.38;;
45970;SDS011;31681;48.982;8.394;2023-09-19T04:48:12;2.78;;;1.73;;
45970;SDS011;31681;48.982;8.394;2023-09-19T04:50:41;3.28;;;1.85;;
45970;SDS011;31681;48.982;8.394;2023-09-19T04:53:06;3.15;;;1.70;;
45970;SDS011;31681;48.982;8.394;2023-09-19T04:55:32;4.53;;;2.10;;
45970;SDS011;31681;48.982;8.394;2023-09-19T04:57:58;5.65;;;1.90;;
45970;SDS011;31681;48.982;8.394;2023-09-19T05:00:23;4.30;;;1.80;;
45970;SDS011;31681;48.982;8.394;2023-09-19T05:02:52;2.45;;;1.60;;
45970;SDS011;31681;48.982;8.394;2023-09-19T05:05:20;3.22;;;1.83;;
45970;SDS011;31681;48.982;8.394;2023-09-19T05:07:46;4.30;;;1.90;;
45970;SDS011;31681;48.982;8.394;2023-09-19T05:10:12;3.60;;;1.50;;
45970;SDS011;31681;48.982;8.394;2023-09-19T05:12:37;2.75;;;2.05;;
45970;SDS011;31681;48.982;8.394;2023-09-19T05:15:03;4.35;;;1.70;;
45970;SDS011;31681;48.982;8.394;2023-09-19T05:17:29;3.92;;;1.60;;
45970;SDS011;31681;48.982;8.394;2023-09-19T05:19:55;2.58;;;1.92;;
45970;SDS011;31681;48.982;8.394;2023-09-19T05:22:22;3.65;;;2.20;;
45970;SDS011;31681;48.982;8.394;2023-09-19T05:24:49;3.22;;;1.80;;
45970;SDS011;31681;48.982;8.394;2023-09-19T05:27:15;4.82;;;1.80;;
45970;SDS011;31681;48.982;8.394;2023-09-19T05:29:42;3.97;;;1.83;;
45970;SDS011;31681;48.982;8.394;2023-09-19T05:32:07;6.15;;;1.80;;
45970;SDS011;31681;48.982;8.394;2023-09-19T05:34:33;3.65;;;1.70;;
45970;SDS011;31681;48.982;8.394;2023-09-19T05:40:24;6.22;;;1.80;;
45970;SDS011;31681;48.982;8.394;2023-09-19T05:42:49;4.97;;;2.03;;
45970;SDS011;31681;48.982;8.394;2023-09-19T05:45:15;3.70;;;1.88;;
45970;SDS011;31681;48.982;8.394;2023-09-19T05:47:47;2.90;;;1.80;;
45970;SDS011;31681;48.982;8.394;2023-09-19T05:50:13;2.90;;;1.90;;
45970;SDS011;31681;48.982;8.394;2023-09-19T05:52:39;7.07;;;1.95;;
45970;SDS011;31681;48.982;8.394;2023-09-19T05:55:06;7.15;;;2.50;;
45970;SDS011;31681;48.982;8.394;2023-09-19T05:57:35;3.55;;;2.40;;
45970;SDS011;31681;48.982;8.394;2023-09-19T06:00:01;3.95;;;2.08;;
45970;SDS011;31681;48.982;8.394;2023-09-19T06:02:26;5.30;;;1.98;;
45970;SDS011;31681;48.982;8.394;2023-09-19T06:04:54;5.05;;;2.03;;
45970;SDS011;31681;48.982;8.394;2023-09-19T06:07:20;3.63;;;1.83;;
45970;SDS011;31681;48.982;8.394;2023-09-19T06:09:47;4.07;;;2.10;;
45970;SDS011;31681;48.982;8.394;2023-09-19T06:12:12;3.55;;;1.83;;
45970;SDS011;31681;48.982;8.394;2023-09-19T06:14:42;3.95;;;2.10;;
45970;SDS011;31681;48.982;8.394;2023-09-19T06:17:08;6.00;;;1.83;;
45970;SDS011;31681;48.982;8.394;2023-09-19T06:19:33;7.38;;;2.00;;
45970;SDS011;31681;48.982;8.394;2023-09-19T06:21:59;4.93;;;1.95;;
45970;SDS011;31681;48.982;8.394;2023-09-19T06:24:24;4.47;;;2.15;;
45970;SDS011;31681;48.982;8.394;2023-09-19T06:26:50;3.90;;;2.03;;
45970;SDS011;31681;48.982;8.394;2023-09-19T06:29:17;5.55;;;2.63;;
45970;SDS011;31681;48.982;8.394;2023-09-19T06:31:43;6.43;;;2.28;;
45970;SDS011;31681;48.982;8.394;2023-09-19T06:34:10;4.35;;;1.90;;
45970;SDS011;31681;48.982;8.394;2023-09-19T06:36:35;3.85;;;2.17;;
45970;SDS011;31681;48.982;8.394;2023-09-19T06:39:01;4.50;;;2.00;;
45970;SDS011;31681;48.982;8.394;2023-09-19T06:41:29;4.20;;;2.00;;
45970;SDS011;31681;48.982;8.394;2023-09-19T06:43:55;5.28;;;2.00;;
45970;SDS011;31681;48.982;8.394;2023-09-19T06:46:20;5.28;;;2.10;;
45970;SDS011;31681;48.982;8.394;2023-09-19T06:48:46;5.55;;;2.33;;
45970;SDS011;31681;48.982;8.394;2023-09-19T06:51:13;4.55;;;2.15;;
45970;SDS011;31681;48.982;8.394;2023-09-19T06:53:41;5.63;;;2.03;;
45970;SDS011;31681;48.982;8.394;2023-09-19T06:56:07;4.45;;;2.05;;
45970;SDS011;31681;48.982;8.394;2023-09-19T06:58:32;6.97;;;2.40;;
45970;SDS011;31681;48.982;8.394;2023-09-19T07:00:58;4.22;;;2.20;;
45970;SDS011;31681;48.982;8.394;2023-09-19T07:03:23;6.35;;;2.30;;
45970;SDS011;31681;48.982;8.394;2023-09-19T07:05:51;3.63;;;1.90;;
45970;SDS011;31681;48.982;8.394;2023-09-19T07:08:17;6.35;;;1.88;;
45970;SDS011;31681;48.982;8.394;2023-09-19T07:10:45;7.30;;;2.90;;
45970;SDS011;31681;48.982;8.394;2023-09-19T07:13:28;3.10;;;1.95;;
45970;SDS011;31681;48.982;8.394;2023-09-19T07:15:53;5.55;;;2.05;;
45970;SDS011;31681;48.982;8.394;2023-09-19T07:18:19;4.38;;;1.92;;
45970;SDS011;31681;48.982;8.394;2023-09-19T07:20:45;6.82;;;2.35;;
45970;SDS011;31681;48.982;8.394;2023-09-19T07:23:18;5.70;;;2.10;;
45970;SDS011;31681;48.982;8.394;2023-09-19T07:25:43;8.13;;;2.30;;
45970;SDS011;31681;48.982;8.394;2023-09-19T07:28:09;4.63;;;2.10;;
45970;SDS011;31681;48.982;8.394;2023-09-19T07:30:37;7.15;;;2.50;;
45970;SDS011;31681;48.982;8.394;2023-09-19T07:33:04;4.70;;;2.53;;
45970;SDS011;31681;48.982;8.394;2023-09-19T07:35:30;4.93;;;2.45;;
45970;SDS011;31681;48.982;8.394;2023-09-19T07:37:56;5.82;;;2.33;;
45970;SDS011;31681;48.982;8.394;2023-09-19T07:40:26;4.57;;;2.20;;
45970;SDS011;31681;48.982;8.394;2023-09-19T07:42:53;5.63;;;2.15;;
45970;SDS011;31681;48.982;8.394;2023-09-19T07:45:19;3.65;;;2.30;;
45970;SDS011;31681;48.982;8.394;2023-09-19T07:47:44;2.97;;;2.03;;
45970;SDS011;31681;48.982;8.394;2023-09-19T07:50:10;3.08;;;1.75;;
45970;SDS011;31681;48.982;8.394;2023-09-19T07:52:36;4.53;;;1.80;;
45970;SDS011;31681;48.982;8.394;2023-09-19T07:55:04;5.25;;;1.90;;
45970;SDS011;31681;48.982;8.394;2023-09-19T07:57:33;3.35;;;1.70;;
45970;SDS011;31681;48.982;8.394;2023-09-19T07:59:59;2.80;;;1.80;;
45970;SDS011;31681;48.982;8.394;2023-09-19T08:02:25;4.72;;;1.70;;
45970;SDS011;31681;48.982;8.394;2023-09-19T08:04:50;3.60;;;1.45;;
45970;SDS011;31681;48.982;8.394;2023-09-19T08:07:17;5.82;;;1.88;;
45970;SDS011;31681;48.982;8.394;2023-09-19T08:09:43;4.57;;;1.63;;
45970;SDS011;31681;48.982;8.394;2023-09-19T08:12:11;5.68;;;1.90;;
45970;SDS011;31681;48.982;8.394;2023-09-19T08:14:36;4.53;;;1.20;;
45970;SDS011;31681;48.982;8.394;2023-09-19T08:17:03;2.50;;;1.63;;
45970;SDS011;31681;48.982;8.394;2023-09-19T08:19:30;3.70;;;1.60;;
45970;SDS011;31681;48.982;8.394;2023-09-19T08:22:00;4.05;;;1.52;;
45970;SDS011;31681;48.982;8.394;2023-09-19T08:24:29;3.33;;;1.48;;
45970;SDS011;31681;48.982;8.394;2023-09-19T08:26:55;3.85;;;1.65;;
45970;SDS011;31681;48.982;8.394;2023-09-19T08:29:21;2.03;;;1.30;;
45970;SDS011;31681;48.982;8.394;2023-09-19T08:31:46;2.17;;;1.60;;
45970;SDS011;31681;48.982;8.394;2023-09-19T08:34:14;3.67;;;1.50;;
45970;SDS011;31681;48.982;8.394;2023-09-19T08:36:40;4.25;;;1.60;;
45970;SDS011;31681;48.982;8.394;2023-09-19T08:39:06;3.35;;;1.65;;
45970;SDS011;31681;48.982;8.394;2023-09-19T08:41:32;3.20;;;1.67;;
45970;SDS011;31681;48.982;8.394;2023-09-19T08:44:00;2.03;;;1.20;;
45970;SDS011;31681;48.982;8.394;2023-09-19T08:46:30;3.03;;;1.58;;
45970;SDS011;31681;48.982;8.394;2023-09-19T08:49:03;5.70;;;1.60;;
45970;SDS011;31681;48.982;8.394;2023-09-19T08:51:40;2.28;;;1.20;;
45970;SDS011;31681;48.982;8.394;2023-09-19T08:54:06;2.28;;;1.15;;
45970;SDS011;31681;48.982;8.394;2023-09-19T08:56:32;2.17;;;1.08;;
45970;SDS011;31681;48.982;8.394;2023-09-19T08:59:04;4.13;;;1.23;;
45970;SDS011;31681;48.982;8.394;2023-09-19T09:01:31;6.40;;;1.27;;
45970;SDS011;31681;48.982;8.394;2023-09-19T09:03:57;4.65;;;1.17;;
45970;SDS011;31681;48.982;8.394;2023-09-19T09:06:23;2.20;;;1.20;;
45970;SDS011;31681;48.982;8.394;2023-09-19T09:08:50;4.10;;;1.10;;
45970;SDS011;31681;48.982;8.394;2023-09-19T09:11:16;2.25;;;0.93;;
45970;SDS011;31681;48.982;8.394;2023-09-19T09:13:43;2.88;;;1.05;;
45970;SDS011;31681;48.982;8.394;2023-09-19T09:16:09;6.63;;;1.05;;
45970;SDS011;31681;48.982;8.394;2023-09-19T09:18:35;4.07;;;1.15;;
45970;SDS011;31681;48.982;8.394;2023-09-19T09:21:00;4.43;;;1.25;;
45970;SDS011;31681;48.982;8.394;2023-09-19T09:23:26;4.25;;;1.35;;
45970;SDS011;31681;48.982;8.394;2023-09-19T09:25:54;2.85;;;0.90;;
45970;SDS011;31681;48.982;8.394;2023-09-19T09:28:25;3.60;;;1.33;;
45970;SDS011;31681;48.982;8.394;2023-09-19T09:30:53;3.65;;;1.13;;
45970;SDS011;31681;48.982;8.394;2023-09-19T09:33:18;3.70;;;0.90;;
45970;SDS011;31681;48.982;8.394;2023-09-19T09:38:19;3.63;;;1.27;;
45970;SDS011;31681;48.982;8.394;2023-09-19T09:40:49;2.65;;;1.02;;
45970;SDS011;31681;48.982;8.394;2023-09-19T09:43:24;2.97;;;0.88;;
45970;SDS011;31681;48.982;8.394;2023-09-19T09:46:15;2.40;;;1.10;;
45970;SDS011;31681;48.982;8.394;2023-09-19T09:48:47;3.30;;;1.40;;
45970;SDS011;31681;48.982;8.394;2023-09-19T09:54:12;2.42;;;1.00;;
45970;SDS011;31681;48.982;8.394;2023-09-19T09:59:44;2.65;;;1.00;;
45970;SDS011;31681;48.982;8.394;2023-09-19T10:15:31;3.15;;;1.25;;
45970;SDS011;31681;48.982;8.394;2023-09-19T10:17:57;6.05;;;2.05;;
45970;SDS011;31681;48.982;8.394;2023-09-19T10:20:26;3.30;;;1.02;;
45970;SDS011;31681;48.982;8.394;2023-09-19T10:23:03;2.28;;;1.02;;
45970;SDS011;31681;48.982;8.394;2023-09-19T10:25:34;2.95;;;0.98;;
45970;SDS011;31681;48.982;8.394;2023-09-19T10:28:02;3.85;;;1.23;;
45970;SDS011;31681;48.982;8.394;2023-09-19T10:30:29;3.88;;;1.40;;
45970;SDS011;31681;48.982;8.394;2023-09-19T10:33:04;2.10;;;1.08;;
45970;SDS011;31681;48.982;8.394;2023-09-19T10:35:33;2.03;;;1.20;;
45970;SDS011;31681;48.982;8.394;2023-09-19T10:38:01;2.38;;;1.15;;
45970;SDS011;31681;48.982;8.394;2023-09-19T10:40:28;3.65;;;1.60;;
45970;SDS011;31681;48.982;8.394;2023-09-19T10:43:05;3.42;;;1.40;;
45970;SDS011;31681;48.982;8.394;2023-09-19T10:45:31;2.65;;;1.02;;
45970;SDS011;31681;48.982;8.394;2023-09-19T10:47:57;2.92;;;1.33;;
45970;SDS011;31681;48.982;8.394;2023-09-19T10:50:22;2.42;;;1.20;;
45970;SDS011;31681;48.982;8.394;2023-09-19T10:52:48;3.22;;;1.40;;
45970;SDS011;31681;48.982;8.394;2023-09-19T10:55:24;2.20;;;1.10;;
45970;SDS011;31681;48.982;8.394;2023-09-19T10:57:50;2.65;;;1.58;;
45970;SDS011;31681;48.982;8.394;2023-09-19T11:00:15;3.63;;;1.23;;
45970;SDS011;31681;48.982;8.394;2023-09-19T11:05:36;4.25;;;1.55;;
45970;SDS011;31681;48.982;8.394;2023-09-19T11:08:09;2.95;;;1.20;;
45970;SDS011;31681;48.982;8.394;2023-09-19T11:10:49;3.70;;;1.30;;
45970;SDS011;31681;48.982;8.394;2023-09-19T11:26:40;4.88;;;1.30;;
45970;SDS011;31681;48.982;8.394;2023-09-19T11:29:24;2.97;;;1.20;;
45970;SDS011;31681;48.982;8.394;2023-09-19T11:31:50;3.42;;;1.20;;
45970;SDS011;31681;48.982;8.394;2023-09-19T11:37:00;3.30;;;1.13;;
45970;SDS011;31681;48.982;8.394;2023-09-19T11:39:29;4.03;;;1.10;;
45970;SDS011;31681;48.982;8.394;2023-09-19T11:41:54;4.50;;;1.30;;
45970;SDS011;31681;48.982;8.394;2023-09-19T11:44:31;3.35;;;1.33;;
45970;SDS011;31681;48.982;8.394;2023-09-19T11:46:58;2.30;;;1.10;;
45970;SDS011;31681;48.982;8.394;2023-09-19T11:49:31;1.60;;;1.00;;
45970;SDS011;31681;48.982;8.394;2023-09-19T11:52:01;2.10;;;1.15;;
45970;SDS011;31681;48.982;8.394;2023-09-19T11:54:28;2.30;;;1.23;;
45970;SDS011;31681;48.982;8.394;2023-09-19T11:56:56;3.58;;;1.20;;
45970;SDS011;31681;48.982;8.394;2023-09-19T12:01:51;6.32;;;1.20;;
45970;SDS011;31681;48.982;8.394;2023-09-19T12:07:09;5.88;;;1.20;;
45970;SDS011;31681;48.982;8.394;2023-09-19T12:09:41;2.63;;;1.00;;
45970;SDS011;31681;48.982;8.394;2023-09-19T12:12:23;2.17;;;1.30;;
45970;SDS011;31681;48.982;8.394;2023-09-19T12:14:49;2.22;;;1.00;;
45970;SDS011;31681;48.982;8.394;2023-09-19T12:17:14;5.68;;;1.27;;
45970;SDS011;31681;48.982;8.394;2023-09-19T12:19:49;5.95;;;1.20;;
45970;SDS011;31681;48.982;8.394;2023-09-19T12:22:14;1.88;;;1.15;;
45970;SDS011;31681;48.982;8.394;2023-09-19T12:24:39;4.63;;;1.20;;
45970;SDS011;31681;48.982;8.394;2023-09-19T12:27:07;2.63;;;1.30;;
45970;SDS011;31681;48.982;8.394;2023-09-19T12:32:07;3.78;;;1.15;;
45970;SDS011;31681;48.982;8.394;2023-09-19T12:34:33;2.17;;;0.90;;
45970;SDS011;31681;48.982;8.394;2023-09-19T12:37:09;2.08;;;0.90;;
45970;SDS011;31681;48.982;8.394;2023-09-19T12:39:42;1.88;;;1.10;;
45970;SDS011;31681;48.982;8.394;2023-09-19T12:42:09;1.92;;;1.17;;
45970;SDS011;31681;48.982;8.394;2023-09-19T12:44:38;3.20;;;1.20;;
45970;SDS011;31681;48.982;8.394;2023-09-19T12:47:13;2.33;;;1.05;;
45970;SDS011;31681;48.982;8.394;2023-09-19T12:52:25;3.40;;;1.42;;
45970;SDS011;31681;48.982;8.394;2023-09-19T12:54:51;2.22;;;1.10;;
45970;SDS011;31681;48.982;8.394;2023-09-19T12:57:23;2.20;;;1.10;;
45970;SDS011;31681;48.982;8.394;2023-09-19T12:59:51;2.10;;;1.00;;
45970;SDS011;31681;48.982;8.394;2023-09-19T13:02:16;1.85;;;0.80;;
45970;SDS011;31681;48.982;8.394;2023-09-19T13:04:51;1.63;;;0.95;;
45970;SDS011;31681;48.982;8.394;2023-09-19T13:10:04;2.60;;;1.05;;
45970;SDS011;31681;48.982;8.394;2023-09-19T13:12:37;2.78;;;1.40;;
45970;SDS011;31681;48.982;8.394;2023-09-19T13:15:07;1.75;;;0.90;;
45970;SDS011;31681;48.982;8.394;2023-09-19T13:17:47;1.83;;;1.13;;
45970;SDS011;31681;48.982;8.394;2023-09-19T13:20:26;1.30;;;1.00;;
45970;SDS011;31681;48.982;8.394;2023-09-19T13:22:57;1.70;;;1.10;;
45970;SDS011;31681;48.982;8.394;2023-09-19T13:25:31;3.08;;;1.13;;
45970;SDS011;31681;48.982;8.394;2023-09-19T13:27:58;2.30;;;1.40;;
45970;SDS011;31681;48.982;8.394;2023-09-19T13:30:26;1.80;;;1.00;;
45970;SDS011;31681;48.982;8.394;2023-09-19T13:32:52;2.63;;;1.30;;
45970;SDS011;31681;48.982;8.394;2023-09-19T13:35:18;3.40;;;1.10;;
45970;SDS011;31681;48.982;8.394;2023-09-19T13:37:43;2.53;;;1.10;;
45970;SDS011;31681;48.982;8.394;2023-09-19T13:40:11;4.32;;;1.33;;
45970;SDS011;31681;48.982;8.394;2023-09-19T13:42:37;1.30;;;1.00;;
45970;SDS011;31681;48.982;8.394;2023-09-19T13:45:03;2.92;;;1.02;;
45970;SDS011;31681;48.982;8.394;2023-09-19T13:47:29;2.00;;;1.23;;
45970;SDS011;31681;48.982;8.394;2023-09-19T13:49:55;1.33;;;1.00;;
45970;SDS011;31681;48.982;8.394;2023-09-19T13:52:20;2.85;;;1.02;;
45970;SDS011;31681;48.982;8.394;2023-09-19T13:54:46;3.70;;;1.08;;
45970;SDS011;31681;48.982;8.394;2023-09-19T13:57:12;1.85;;;1.00;;
45970;SDS011;31681;48.982;8.394;2023-09-19T13:59:37;1.95;;;0.88;;
45970;SDS011;31681;48.982;8.394;2023-09-19T14:02:03;2.95;;;1.00;;
45970;SDS011;31681;48.982;8.394;2023-09-19T14:04:28;1.25;;;0.73;;
45970;SDS011;31681;48.982;8.394;2023-09-19T14:06:54;3.70;;;0.95;;
45970;SDS011;31681;48.982;8.394;2023-09-19T14:09:19;1.48;;;1.00;;
45970;SDS011;31681;48.982;8.394;2023-09-19T14:11:45;2.28;;;1.08;;
45970;SDS011;31681;48.982;8.394;2023-09-19T14:14:13;2.15;;;0.90;;
45970;SDS011;31681;48.982;8.394;2023-09-19T14:16:38;3.08;;;1.00;;
45970;SDS011;31681;48.982;8.394;2023-09-19T14:19:05;3.75;;;1.00;;
45970;SDS011;31681;48.982;8.394;2023-09-19T14:21:33;1.55;;;1.27;;
45970;SDS011;31681;48.982;8.394;2023-09-19T14:23:58;1.75;;;1.02;;
45970;SDS011;31681;48.982;8.394;2023-09-19T14:26:23;3.33;;;0.80;;
45970;SDS011;31681;48.982;8.394;2023-09-19T14:28:49;2.42;;;0.93;;
45970;SDS011;31681;48.982;8.394;2023-09-19T14:31:14;1.98;;;0.90;;
45970;SDS011;31681;48.982;8.394;2023-09-19T14:33:40;3.10;;;1.10;;
45970;SDS011;31681;48.982;8.394;2023-09-19T14:36:06;1.30;;;0.82;;
45970;SDS011;31681;48.982;8.394;2023-09-19T14:38:33;1.40;;;1.23;;
45970;SDS011;31681;48.982;8.394;2023-09-19T14:40:59;2.95;;;0.98;;
45970;SDS011;31681;48.982;8.394;2023-09-19T14:43:25;0.90;;;0.73;;
45970;SDS011;31681;48.982;8.394;2023-09-19T14:45:50;1.55;;;0.63;;
45970;SDS011;31681;48.982;8.394;2023-09-19T14:48:15;1.25;;;0.88;;
45970;SDS011;31681;48.982;8.394;2023-09-19T14:51:01;2.60;;;0.82;;
45970;SDS011;31681;48.982;8.394;2023-09-19T14:53:27;1.27;;;0.70;;
45970;SDS011;31681;48.982;8.394;2023-09-19T14:55:52;0.80;;;0.68;;
45970;SDS011;31681;48.982;8.394;2023-09-19T14:58:20;1.42;;;0.60;;
45970;SDS011;31681;48.982;8.394;2023-09-19T15:00:46;1.80;;;0.80;;
45970;SDS011;31681;48.982;8.394;2023-09-19T15:03:11;1.55;;;0.70;;
45970;SDS011;31681;48.982;8.394;2023-09-19T15:05:37;0.95;;;0.75;;
45970;SDS011;31681;48.982;8.394;2023-09-19T15:08:02;1.08;;;0.70;;
45970;SDS011;31681;48.982;8.394;2023-09-19T15:10:28;1.17;;;0.68;;
45970;SDS011;31681;48.982;8.394;2023-09-19T15:12:53;3.17;;;0.95;;
45970;SDS011;31681;48.982;8.394;2023-09-19T15:15:18;0.82;;;0.73;;
45970;SDS011;31681;48.982;8.394;2023-09-19T15:17:50;1.15;;;0.80;;
45970;SDS011;31681;48.982;8.394;2023-09-19T15:20:16;2.45;;;1.00;;
45970;SDS011;31681;48.982;8.394;2023-09-19T15:22:42;0.93;;;0.82;;
45970;SDS011;31681;48.982;8.394;2023-09-19T15:25:08;1.50;;;0.80;;
45970;SDS011;31681;48.982;8.394;2023-09-19T15:27:33;1.63;;;0.90;;
45970;SDS011;31681;48.982;8.394;2023-09-19T15:29:59;1.75;;;0.98;;
45970;SDS011;31681;48.982;8.394;2023-09-19T15:32:25;1.35;;;0.80;;
45970;SDS011;31681;48.982;8.394;2023-09-19T15:34:51;1.58;;;0.77;;
45970;SDS011;31681;48.982;8.394;2023-09-19T15:37:16;1.50;;;0.95;;
45970;SDS011;31681;48.982;8.394;2023-09-19T15:39:41;5.10;;;1.20;;
45970;SDS011;31681;48.982;8.394;2023-09-19T15:42:07;1.27;;;0.90;;
45970;SDS011;31681;48.982;8.394;2023-09-19T15:44:32;1.75;;;1.00;;
45970;SDS011;31681;48.982;8.394;2023-09-19T15:46:58;3.67;;;1.10;;
45970;SDS011;31681;48.982;8.394;2023-09-19T15:49:23;4.20;;;1.05;;
45970;SDS011;31681;48.982;8.394;2023-09-19T15:51:48;1.35;;;1.10;;
45970;SDS011;31681;48.982;8.394;2023-09-19T15:54:14;3.70;;;1.35;;
45970;SDS011;31681;48.982;8.394;2023-09-19T15:56:40;2.17;;;0.90;;